»·PEaware :: AWE2313 KPDX-KOTH

AWE2313 :: KPDX-KOTH

FLIGHT INFORMATION

Flight Status: Arrived
Operator:
US Airways
More flights by this operator :: More flights under this callsign
Pilot: Walter P. (10403)
Aircraft: BOEING 737-300
(B733)
More flights by this aircraft type
Origin: KPDX Portland Intl
United States
Destination: KOTH North Bend Mun
United States
More flights between these airports :: More routes between these airports
Route: +UBG V287 RARES
File this flight plan on PilotEdge
Remarks:
Altitude:
(Current/Filed)
17,000ft
Speed:
(Current/Filed)
420kts
Departed: 21-Apr-18 03:43 PM
Arrived: 21-Apr-18 04:23 PM
Distance/Time
Traveled:
148nm/0:40
Distance/Time
To Go:
Arrived

Flight Plot

Page will automatically refresh every two minutes.

Flight plan parsing failed; only flown route is shown


Map Options




Map Legend


Flown Route
Filed Route
Departure Airport
Arrival Airport
Navaid (VOR, NDB)
Fix

Horizontal Profiles

Position Reports

Time Latitude Longitude Heading Altitude Ground
Speed
21-Apr-18 15:11 45.588638 -122.596933 5 36ft 0kts
21-Apr-18 15:12 45.588638 -122.596933 5 36ft 0kts
21-Apr-18 15:13 45.588638 -122.596933 5 36ft 0kts
21-Apr-18 15:14 45.588638 -122.596933 5 36ft 0kts
21-Apr-18 15:15 45.588638 -122.596933 5 36ft 0kts
21-Apr-18 15:16 45.588638 -122.596933 5 36ft 0kts
21-Apr-18 15:17 45.588638 -122.596933 5 36ft 0kts
21-Apr-18 15:18 45.588638 -122.596933 5 36ft 0kts
21-Apr-18 15:19 45.588638 -122.596933 5 36ft 0kts
21-Apr-18 15:20 45.588638 -122.596933 5 36ft 0kts
21-Apr-18 15:21 45.588638 -122.596933 5 36ft 0kts
21-Apr-18 15:22 45.588638 -122.596933 5 36ft 0kts
21-Apr-18 15:23 45.588638 -122.596933 5 36ft 0kts
21-Apr-18 15:24 45.588638 -122.596933 5 36ft 0kts
21-Apr-18 15:25 45.588638 -122.596933 5 36ft 0kts
21-Apr-18 15:26 45.588638 -122.596933 5 36ft 0kts
21-Apr-18 15:27 45.588638 -122.596933 5 36ft 0kts
21-Apr-18 15:28 45.588638 -122.596933 5 36ft 0kts
21-Apr-18 15:29 45.588638 -122.596933 5 36ft 0kts
21-Apr-18 15:30 45.588638 -122.596933 5 36ft 0kts
21-Apr-18 15:31 45.588638 -122.596933 5 36ft 0kts
21-Apr-18 15:32 45.588638 -122.596933 5 36ft 0kts
21-Apr-18 15:33 45.588638 -122.596933 5 36ft 0kts
21-Apr-18 15:34 45.588280 -122.597025 28 36ft 2kts
21-Apr-18 15:35 45.588023 -122.597737 99 36ft 2kts
21-Apr-18 15:36 45.588101 -122.598022 118 36ft 0kts
21-Apr-18 15:37 45.588101 -122.598022 118 36ft 0kts
21-Apr-18 15:38 45.587991 -122.597737 117 36ft 8kts
21-Apr-18 15:39 45.584540 -122.590622 128 36ft 29kts
21-Apr-18 15:40 45.581542 -122.583600 174 36ft 0kts
21-Apr-18 15:41 45.581510 -122.583596 174 36ft 1kts
21-Apr-18 15:42 45.583964 -122.592813 299 36ft 104kts
21-Apr-18 15:43 45.601820 -122.640274 297 1683ft 163kts
21-Apr-18 15:44 45.627430 -122.709222 297 3855ft 219kts
21-Apr-18 15:45 45.656335 -122.784586 297 6997ft 235kts
21-Apr-18 15:46 45.665894 -122.870140 227 9704ft 261kts
21-Apr-18 15:47 45.596652 -122.891027 204 12517ft 274kts
21-Apr-18 15:48 45.518376 -122.922953 197 13626ft 332kts
21-Apr-18 15:49 45.430190 -122.952771 198 15816ft 332kts
21-Apr-18 15:50 45.340212 -122.986109 208 16985ft 347kts
21-Apr-18 15:51 45.252758 -123.042072 208 17004ft 351kts
21-Apr-18 15:52 45.164360 -123.098157 208 17000ft 351kts
21-Apr-18 15:53 45.075725 -123.154141 208 17000ft 351kts
21-Apr-18 15:54 44.987158 -123.209837 208 16992ft 352kts
21-Apr-18 15:55 44.898675 -123.265362 208 16991ft 352kts
21-Apr-18 15:56 44.811364 -123.319775 208 16995ft 352kts
21-Apr-18 15:57 44.722645 -123.374978 208 17000ft 351kts
21-Apr-18 15:58 44.633383 -123.430416 208 17001ft 351kts
21-Apr-18 15:59 44.544739 -123.485305 208 17001ft 351kts
21-Apr-18 16:00 44.456182 -123.539958 208 17001ft 351kts
21-Apr-18 16:01 44.367291 -123.594634 208 16982ft 351kts
21-Apr-18 16:02 44.278812 -123.648740 208 16984ft 351kts
21-Apr-18 16:03 44.190516 -123.702870 208 16977ft 349kts
21-Apr-18 16:04 44.101991 -123.756811 208 17001ft 349kts
21-Apr-18 16:05 44.013001 -123.810835 208 17001ft 349kts
21-Apr-18 16:06 43.924379 -123.864459 208 17001ft 349kts
21-Apr-18 16:07 43.840744 -123.914812 208 16976ft 340kts
21-Apr-18 16:08 43.754135 -123.967073 208 16674ft 337kts
21-Apr-18 16:09 43.670602 -124.016888 207 14637ft 322kts
21-Apr-18 16:10 43.592248 -124.062354 206 13342ft 280kts
21-Apr-18 16:11 43.522051 -124.104260 207 11193ft 274kts
21-Apr-18 16:12 43.452682 -124.146361 207 8835ft 279kts
21-Apr-18 16:13 43.386925 -124.196995 220 6979ft 259kts
21-Apr-18 16:14 43.329842 -124.254044 220 5333ft 245kts
21-Apr-18 16:15 43.283227 -124.304018 236 4821ft 192kts
21-Apr-18 16:16 43.276740 -124.372421 300 2895ft 190kts
21-Apr-18 16:17 43.311499 -124.411925 348 2449ft 143kts
21-Apr-18 16:18 43.347779 -124.403434 21 1857ft 138kts
21-Apr-18 16:19 43.367514 -124.358308 42 1244ft 132kts
21-Apr-18 16:20 43.390126 -124.317151 43 1121ft 136kts
21-Apr-18 16:21 43.409463 -124.273153 50 323ft 130kts
21-Apr-18 16:22 43.421797 -124.243628 71 11ft 12kts
21-Apr-18 16:23 43.419768 -124.245183 241 14ft 12kts
21-Apr-18 16:24 43.417624 -124.246936 249 22ft 8kts
21-Apr-18 16:25 43.417416 -124.247029 143 23ft 0kts
21-Apr-18 16:26 43.417416 -124.247030 143 23ft 0kts

Navigation Log

Ident Type
Flight plan parsing failed, navigation log unavailable